createdAt,value
2022-12-06T06:24:02.193Z,25.87
2022-12-06T06:26:36.339Z,27.67
2022-12-06T06:29:04.996Z,26.00
2022-12-06T06:31:32.344Z,28.83
2022-12-06T06:34:01.537Z,28.77
2022-12-06T06:36:28.780Z,27.50
2022-12-06T06:38:56.116Z,27.47
2022-12-06T06:41:23.418Z,28.30
2022-12-06T06:43:50.691Z,28.10
2022-12-06T06:46:18.021Z,27.33
2022-12-06T06:48:45.460Z,27.57
2022-12-06T06:51:14.866Z,27.67
2022-12-06T06:53:42.275Z,26.97
2022-12-06T06:56:09.605Z,27.23
2022-12-06T06:58:36.974Z,26.47
2022-12-06T07:01:05.851Z,28.07
2022-12-06T07:03:33.288Z,28.47
2022-12-06T07:06:01.839Z,27.67
2022-12-06T07:09:02.269Z,27.37
2022-12-06T07:11:29.569Z,27.23
2022-12-06T07:13:57.053Z,26.50
2022-12-06T07:16:24.489Z,25.80
2022-12-06T07:18:51.899Z,27.17
2022-12-06T07:21:19.265Z,27.57
2022-12-06T07:23:46.731Z,26.43
2022-12-06T07:26:16.027Z,26.83
2022-12-06T07:28:44.636Z,27.10
2022-12-06T07:31:22.601Z,27.07
2022-12-06T07:33:52.356Z,27.67
2022-12-06T07:36:19.951Z,26.83
2022-12-06T07:38:51.537Z,27.20
2022-12-06T07:41:38.327Z,25.87
2022-12-06T07:44:32.232Z,26.63
2022-12-06T07:47:01.026Z,26.63
2022-12-06T07:49:28.413Z,26.53
2022-12-06T07:51:56.012Z,26.97
2022-12-06T07:54:24.160Z,27.90
2022-12-06T07:56:51.534Z,26.87
2022-12-06T07:59:19.567Z,27.67
2022-12-06T08:01:46.992Z,27.97
2022-12-06T08:04:14.650Z,29.23
2022-12-06T08:06:41.995Z,29.60
2022-12-06T08:09:09.578Z,29.77
2022-12-06T08:11:37.097Z,31.33
2022-12-06T08:14:04.966Z,30.17
2022-12-06T08:16:32.609Z,31.17
2022-12-06T08:19:00.015Z,30.27
2022-12-06T08:21:29.637Z,31.13
2022-12-06T08:23:57.061Z,31.53
2022-12-06T08:26:24.711Z,32.50
2022-12-06T08:28:52.663Z,32.17
2022-12-06T08:31:21.413Z,33.60
2022-12-06T08:33:48.920Z,33.87
2022-12-06T08:36:17.852Z,33.30
2022-12-06T08:38:45.576Z,34.40
2022-12-06T08:41:32.368Z,35.63
2022-12-06T08:44:02.832Z,35.10
2022-12-06T08:46:30.896Z,34.53
2022-12-06T08:48:58.470Z,33.83
2022-12-06T08:51:26.031Z,34.27
2022-12-06T08:53:55.489Z,34.80
2022-12-06T08:56:24.969Z,32.73
2022-12-06T08:58:53.880Z,35.53
2022-12-06T09:01:22.536Z,33.83
2022-12-06T09:03:49.867Z,34.07
2022-12-06T09:06:18.229Z,34.77
2022-12-06T09:08:46.419Z,34.83
2022-12-06T09:11:14.797Z,34.37
2022-12-06T09:13:42.191Z,33.97
2022-12-06T09:16:10.914Z,34.67
2022-12-06T09:18:38.376Z,35.30
2022-12-06T09:21:06.861Z,35.53
2022-12-06T09:23:34.760Z,35.20
2022-12-06T09:26:05.341Z,44.30
2022-12-06T09:28:32.851Z,36.43
2022-12-06T09:31:00.416Z,35.33
2022-12-06T09:33:30.539Z,34.70
2022-12-06T09:35:58.669Z,37.27
2022-12-06T09:38:28.640Z,35.17
2022-12-06T09:41:47.193Z,34.03
2022-12-06T09:44:29.554Z,35.17
2022-12-06T09:46:57.084Z,35.87
2022-12-06T09:49:24.403Z,37.00
2022-12-06T09:52:00.866Z,36.53
2022-12-06T09:54:49.069Z,35.03
2022-12-06T09:57:39.049Z,33.83
2022-12-06T10:00:14.568Z,35.20
2022-12-06T10:03:03.848Z,34.30
2022-12-06T10:05:38.933Z,34.73
2022-12-06T10:08:25.242Z,34.53
2022-12-06T10:10:57.642Z,34.43
2022-12-06T10:13:57.178Z,34.60
2022-12-06T10:16:36.433Z,34.50
2022-12-06T10:19:38.801Z,35.63
2022-12-06T10:22:09.015Z,35.17
2022-12-06T10:24:42.333Z,34.73
2022-12-06T10:27:11.912Z,34.73
2022-12-06T10:29:41.546Z,35.13
2022-12-06T10:32:32.402Z,35.27
2022-12-06T10:35:07.218Z,34.20
2022-12-06T10:37:43.388Z,35.23
2022-12-06T10:40:17.433Z,35.20
2022-12-06T10:42:49.862Z,36.07
2022-12-06T10:45:37.565Z,36.50
2022-12-06T10:50:57.015Z,36.33
2022-12-06T10:53:26.852Z,35.53
2022-12-06T10:56:17.485Z,35.60
2022-12-06T10:58:47.999Z,35.30
2022-12-06T11:01:28.526Z,35.80
2022-12-06T11:03:58.952Z,38.40
2022-12-06T11:06:32.924Z,35.60
2022-12-06T11:09:08.060Z,35.93
2022-12-06T11:11:37.339Z,36.47
2022-12-06T11:14:04.668Z,35.93
2022-12-06T11:16:34.521Z,35.57
2022-12-06T11:19:07.709Z,34.87
2022-12-06T11:21:58.836Z,34.73
2022-12-06T11:24:26.254Z,36.47
2022-12-06T11:27:15.721Z,35.40
2022-12-06T11:29:44.023Z,37.23
2022-12-06T11:32:13.293Z,36.13
2022-12-06T11:34:46.078Z,34.47
2022-12-06T11:37:22.019Z,35.17
2022-12-06T11:39:51.421Z,34.63
2022-12-06T11:42:22.122Z,33.83
2022-12-06T11:44:52.967Z,33.60
2022-12-06T11:47:22.068Z,34.17
2022-12-06T11:49:50.998Z,35.10
2022-12-06T11:52:28.775Z,34.30
2022-12-06T11:54:58.753Z,33.00
2022-12-06T11:57:31.789Z,33.37
2022-12-06T12:00:14.828Z,36.20
2022-12-06T12:02:42.910Z,33.33
2022-12-06T12:05:22.376Z,34.67
2022-12-06T12:07:55.825Z,35.57
2022-12-06T12:10:29.521Z,37.10
2022-12-06T12:13:15.978Z,36.23
2022-12-06T12:15:50.558Z,36.17
2022-12-06T12:18:24.778Z,37.43
2022-12-06T12:20:54.057Z,37.07
2022-12-06T12:23:27.775Z,38.70
2022-12-06T12:26:00.304Z,36.43
2022-12-06T12:28:29.140Z,38.83
2022-12-06T12:30:57.546Z,39.17
2022-12-06T12:33:28.727Z,39.20
2022-12-06T12:36:16.450Z,40.20
2022-12-06T12:38:57.119Z,40.60
2022-12-06T12:41:26.971Z,39.33
2022-12-06T12:44:28.948Z,40.70
2022-12-06T12:47:00.638Z,38.43
2022-12-06T12:49:30.259Z,40.17
2022-12-06T12:51:58.004Z,40.93
2022-12-06T12:54:27.626Z,43.03
2022-12-06T12:56:56.454Z,42.67
2022-12-06T12:59:24.979Z,47.23
2022-12-06T13:01:52.903Z,41.80
2022-12-06T13:04:27.046Z,42.20
2022-12-06T13:07:23.783Z,40.57
2022-12-06T13:09:54.556Z,40.70
2022-12-06T13:12:36.022Z,42.20
2022-12-06T13:15:07.982Z,41.30
2022-12-06T13:17:37.420Z,42.17
2022-12-06T13:20:16.081Z,41.63
2022-12-06T13:22:45.542Z,41.83
2022-12-06T13:25:12.880Z,42.30
2022-12-06T13:27:42.352Z,41.87
2022-12-06T13:30:15.556Z,41.53
2022-12-06T13:32:44.962Z,42.40
2022-12-06T13:35:27.455Z,42.37
2022-12-06T13:37:59.088Z,41.63
2022-12-06T13:40:33.263Z,39.73
2022-12-06T13:43:01.453Z,41.50
2022-12-06T13:45:41.111Z,41.60
2022-12-06T13:48:34.780Z,41.33
2022-12-06T13:51:03.607Z,40.57
2022-12-06T13:53:35.887Z,41.43
2022-12-06T13:56:39.004Z,43.00
2022-12-06T13:59:15.237Z,43.50
2022-12-06T14:01:46.782Z,39.20
2022-12-06T14:07:02.754Z,41.90
2022-12-06T14:10:11.131Z,41.63
2022-12-06T14:12:39.725Z,44.07
2022-12-06T14:15:10.348Z,40.20
2022-12-06T14:20:29.662Z,41.63
2022-12-06T14:22:57.165Z,39.13
2022-12-06T14:25:28.784Z,38.33
2022-12-06T14:28:04.624Z,38.17
2022-12-06T14:30:32.627Z,37.57
2022-12-06T14:33:00.192Z,38.20
2022-12-06T14:35:38.683Z,37.63
2022-12-06T14:38:25.777Z,35.97
2022-12-06T14:41:12.030Z,37.10
2022-12-06T14:43:40.137Z,35.07
2022-12-06T14:46:08.543Z,36.30
2022-12-06T14:51:43.136Z,35.40
2022-12-06T14:54:24.406Z,36.63
2022-12-06T14:56:51.887Z,36.53
2022-12-06T14:59:47.351Z,36.13
2022-12-06T15:02:26.254Z,36.20
2022-12-06T15:04:53.730Z,35.37
2022-12-06T15:07:50.232Z,35.83
2022-12-06T15:10:30.194Z,36.97
2022-12-06T15:13:07.422Z,34.83
2022-12-06T15:15:42.114Z,36.60
2022-12-06T15:18:12.454Z,35.47
2022-12-06T15:20:40.175Z,34.90
2022-12-06T15:23:20.344Z,36.70
2022-12-06T15:25:47.636Z,36.73
2022-12-06T15:28:19.647Z,36.07
2022-12-06T15:30:49.342Z,35.13
2022-12-06T15:33:17.843Z,35.23
2022-12-06T15:35:45.547Z,35.70
2022-12-06T15:38:13.392Z,34.67
2022-12-06T15:40:47.927Z,35.00
2022-12-06T15:43:25.227Z,34.33
2022-12-06T15:45:54.451Z,34.33
2022-12-06T15:48:21.833Z,34.30
2022-12-06T15:50:49.997Z,33.70
2022-12-06T15:53:20.211Z,35.00
2022-12-06T18:29:14.685Z,29.00
2022-12-06T18:31:42.229Z,30.27
2022-12-06T18:34:11.259Z,29.33
2022-12-06T18:36:39.126Z,28.97
2022-12-06T18:39:12.444Z,29.10
2022-12-06T18:41:43.048Z,29.63
2022-12-06T18:44:11.109Z,34.50
2022-12-06T18:46:39.633Z,29.77
2022-12-06T18:49:08.163Z,30.47
2022-12-06T18:51:38.963Z,29.50
2022-12-06T18:54:11.679Z,29.40
2022-12-06T18:56:40.305Z,31.23
2022-12-06T18:59:11.529Z,29.57
2022-12-06T19:01:40.629Z,30.90
2022-12-06T19:04:13.153Z,30.23
2022-12-06T19:06:40.773Z,31.20
2022-12-06T19:09:10.160Z,32.13
2022-12-06T19:11:41.932Z,29.63
2022-12-06T19:14:10.139Z,31.67
2022-12-06T19:16:39.254Z,30.47
2022-12-06T19:19:12.706Z,30.80
2022-12-06T19:21:43.970Z,30.30
2022-12-06T19:24:16.144Z,30.47
2022-12-06T19:26:44.379Z,30.17
2022-12-06T19:29:11.807Z,29.10
2022-12-06T19:31:39.116Z,30.43
2022-12-06T19:34:06.419Z,30.70
2022-12-06T19:36:36.314Z,28.63
2022-12-06T19:39:06.036Z,29.07
2022-12-06T19:41:57.257Z,31.13
2022-12-06T19:44:32.442Z,31.53
2022-12-06T19:46:59.899Z,32.03
2022-12-06T19:49:27.711Z,33.13
2022-12-06T19:51:55.221Z,31.83
2022-12-06T19:54:24.914Z,32.17
2022-12-06T19:56:53.861Z,32.60
2022-12-06T19:59:22.956Z,33.57
2022-12-06T20:01:51.583Z,33.67
2022-12-06T20:04:21.031Z,32.67
2022-12-06T20:06:48.566Z,33.70
2022-12-06T20:09:17.075Z,32.00
2022-12-06T20:12:04.035Z,34.40
2022-12-06T20:14:32.072Z,32.30
2022-12-06T20:16:59.472Z,33.97
2022-12-06T20:19:26.784Z,33.70
2022-12-06T20:21:54.051Z,34.00
2022-12-06T20:24:22.592Z,33.10
2022-12-06T20:26:50.676Z,32.90
2022-12-06T20:29:19.497Z,30.93
2022-12-06T20:31:48.114Z,33.00
2022-12-06T20:34:15.657Z,33.30
2022-12-06T20:36:43.676Z,28.20
2022-12-06T20:39:17.495Z,30.03
2022-12-06T20:41:44.844Z,30.70
2022-12-06T20:44:12.212Z,30.63
2022-12-06T20:46:39.631Z,30.47
2022-12-06T20:49:06.972Z,30.97
2022-12-06T20:51:34.858Z,30.27
2022-12-06T20:54:03.473Z,29.10
2022-12-06T20:56:32.037Z,25.27
2022-12-06T20:59:00.353Z,24.87
2022-12-06T21:01:29.402Z,23.87
2022-12-06T21:03:57.021Z,24.00
2022-12-06T21:06:25.314Z,23.13
2022-12-06T21:08:53.025Z,22.07
2022-12-06T21:11:23.373Z,21.80
2022-12-06T21:13:54.843Z,21.13
2022-12-06T21:16:23.727Z,21.23
2022-12-06T21:19:05.078Z,22.73
2022-12-06T21:21:36.472Z,21.73
2022-12-06T21:24:06.015Z,21.37
2022-12-06T21:26:33.369Z,21.83
2022-12-06T21:29:00.909Z,20.23
2022-12-06T21:31:29.445Z,21.00
2022-12-06T21:33:57.008Z,20.00
2022-12-06T21:36:24.433Z,20.00
2022-12-06T21:38:52.226Z,18.90
2022-12-06T21:41:19.567Z,19.07
2022-12-06T21:43:47.004Z,19.70
2022-12-06T21:46:15.368Z,18.40
2022-12-06T21:48:42.883Z,18.87
2022-12-06T21:51:11.666Z,21.73
2022-12-06T21:53:39.396Z,21.63
2022-12-06T21:56:09.402Z,22.63
2022-12-06T21:58:37.110Z,23.23
2022-12-06T22:01:08.080Z,22.93
2022-12-06T22:03:36.094Z,23.00
2022-12-06T22:06:10.630Z,23.13
2022-12-06T22:08:38.674Z,24.10
2022-12-06T22:11:10.520Z,22.70
2022-12-06T22:13:38.269Z,21.33
2022-12-06T22:16:07.191Z,20.93
2022-12-06T22:18:37.707Z,19.97
2022-12-06T22:21:12.465Z,19.03
2022-12-06T22:23:39.946Z,18.90
2022-12-06T22:26:08.348Z,18.07
2022-12-06T22:28:35.682Z,18.80
2022-12-06T22:31:13.998Z,18.93
2022-12-06T22:33:41.473Z,19.00
2022-12-06T22:36:09.377Z,17.53
2022-12-06T22:38:36.710Z,16.73
2022-12-06T22:41:05.933Z,17.73
2022-12-06T22:43:33.378Z,18.40
2022-12-06T22:46:08.151Z,18.23
2022-12-06T22:48:35.721Z,18.37
2022-12-06T22:51:13.379Z,19.03
2022-12-06T22:53:41.476Z,18.73
2022-12-06T22:56:09.143Z,19.90
2022-12-06T22:58:36.461Z,19.37
2022-12-06T23:01:16.095Z,19.60
2022-12-06T23:03:44.509Z,19.30
2022-12-06T23:06:11.955Z,19.37
2022-12-06T23:08:39.411Z,18.27
2022-12-06T23:11:08.451Z,17.23
2022-12-06T23:13:42.760Z,20.47
2022-12-06T23:16:12.442Z,19.87
2022-12-06T23:18:40.353Z,19.37
2022-12-06T23:21:09.301Z,19.53
2022-12-06T23:23:37.228Z,20.30
2022-12-06T23:26:12.576Z,21.13
2022-12-06T23:28:40.417Z,20.50
2022-12-06T23:31:09.157Z,20.97
2022-12-06T23:33:36.505Z,20.67
2022-12-06T23:36:04.803Z,20.80
2022-12-06T23:38:32.188Z,19.63
2022-12-06T23:41:06.902Z,18.87
2022-12-06T23:43:34.758Z,19.07
